Time;durP1;ratioP1;P1;durP2;ratioP2;P2;SDS_P1;SDS_P2;PMS_P1;PMS_P2;Temp;Humidity;BMP_temperature;BMP_pressure;BME280_temperature;BME280_humidity;BME280_pressure;Samples;Min_cycle;Max_cycle;Signal;HPM_P1;HPM_P2
2023/02/18 00:02:07;;;;;;;46.15;21.55;;;7.90;99.90;;;;;;5038741;28;20366;-79
2023/02/18 00:04:34;;;;;;;50.45;22.45;;;8.00;99.90;;;;;;5021005;28;20048;-77
2023/02/18 00:07:01;;;;;;;51.67;22.63;;;8.00;99.90;;;;;;5042901;28;20041;-77
2023/02/18 00:09:28;;;;;;;49.20;24.73;;;8.10;99.90;;;;;;5010808;28;20098;-78
2023/02/18 00:11:54;;;;;;;65.43;26.02;;;8.10;99.90;;;;;;5027171;28;20075;-77
2023/02/18 00:14:21;;;;;;;61.90;30.15;;;8.10;99.90;;;;;;5046671;28;20063;-77
2023/02/18 00:16:48;;;;;;;61.30;26.67;;;8.20;99.90;;;;;;5019326;28;20049;-80
2023/02/18 00:19:18;;;;;;;69.63;29.52;;;8.20;99.90;;;;;;5045999;28;20493;-77
2023/02/18 00:21:45;;;;;;;61.53;31.05;;;8.20;99.90;;;;;;5027164;28;20041;-78
2023/02/18 00:24:14;;;;;;;63.55;30.48;;;8.30;99.90;;;;;;5019479;28;20333;-77
2023/02/18 00:26:41;;;;;;;62.40;31.23;;;8.30;99.90;;;;;;5024302;28;20052;-79
2023/02/18 00:29:07;;;;;;;72.47;34.08;;;8.30;99.90;;;;;;5020471;28;20071;-78
2023/02/18 00:31:35;;;;;;;69.72;31.13;;;8.30;99.90;;;;;;5032613;28;20052;-79
2023/02/18 00:34:04;;;;;;;83.32;33.95;;;8.30;99.90;;;;;;5021126;28;20056;-78
2023/02/18 00:36:31;;;;;;;72.55;33.03;;;8.30;99.90;;;;;;5019925;28;20468;-78
2023/02/18 00:39:00;;;;;;;71.03;34.35;;;8.30;99.90;;;;;;5020885;28;20417;-79
2023/02/18 00:41:28;;;;;;;83.88;37.03;;;8.40;99.90;;;;;;5041133;28;21777;-79
2023/02/18 00:43:55;;;;;;;81.28;35.72;;;8.40;99.90;;;;;;5020986;28;20048;-80
2023/02/18 00:46:23;;;;;;;89.97;37.40;;;8.40;99.90;;;;;;5030387;28;20052;-78
2023/02/18 00:48:49;;;;;;;67.18;29.60;;;8.40;99.90;;;;;;5038127;28;20057;-78
2023/02/18 00:51:16;;;;;;;73.53;32.83;;;8.40;99.90;;;;;;5034008;28;20041;-78
2023/02/18 00:53:43;;;;;;;69.53;31.10;;;8.40;99.90;;;;;;5037030;28;20048;-79
2023/02/18 00:56:10;;;;;;;61.38;29.58;;;8.50;99.90;;;;;;5021591;28;20559;-79
2023/02/18 00:58:37;;;;;;;69.85;30.95;;;8.40;99.90;;;;;;5024261;28;20064;-78
2023/02/18 01:01:05;;;;;;;70.45;30.38;;;8.40;99.90;;;;;;5020806;28;20345;-78
2023/02/18 01:03:34;;;;;;;67.00;29.85;;;8.40;99.90;;;;;;5029931;28;20104;-77
2023/02/18 01:06:01;;;;;;;63.85;30.65;;;8.50;99.90;;;;;;5025566;28;20049;-77
2023/02/18 01:08:28;;;;;;;65.95;30.35;;;8.50;99.90;;;;;;5030826;28;20045;-78
2023/02/18 01:10:56;;;;;;;64.63;31.70;;;8.40;99.90;;;;;;5039816;28;20037;-78
2023/02/18 01:13:25;;;;;;;71.70;33.42;;;8.50;99.90;;;;;;5022540;28;20113;-78
2023/02/18 01:15:52;;;;;;;75.20;32.53;;;8.50;99.90;;;;;;5019711;28;20508;-78
2023/02/18 01:18:19;;;;;;;75.63;32.35;;;8.40;99.90;;;;;;5024745;28;20098;-80
2023/02/18 01:20:47;;;;;;;71.03;30.23;;;8.40;99.90;;;;;;5011032;28;20494;-80
2023/02/18 01:23:15;;;;;;;80.78;36.78;;;8.40;99.90;;;;;;5031424;28;20494;-78
2023/02/18 01:25:42;;;;;;;87.10;36.92;;;8.40;99.90;;;;;;5030342;28;20394;-77
2023/02/18 01:28:11;;;;;;;82.47;35.80;;;8.50;99.90;;;;;;5038394;28;20037;-77
2023/02/18 01:30:39;;;;;;;86.85;37.42;;;8.50;99.90;;;;;;5021952;28;20053;-78
2023/02/18 01:33:06;;;;;;;86.63;37.42;;;8.40;99.90;;;;;;5023402;28;20044;-78
2023/02/18 01:35:33;;;;;;;94.93;40.95;;;8.50;99.90;;;;;;5054932;28;20045;-76
2023/02/18 01:38:00;;;;;;;93.28;39.28;;;8.50;99.90;;;;;;5035718;28;20448;-78
2023/02/18 01:40:28;;;;;;;98.15;42.90;;;8.50;99.90;;;;;;5056394;28;20044;-75
2023/02/18 01:42:56;;;;;;;99.15;43.83;;;8.50;99.90;;;;;;5027870;28;20191;-76
2023/02/18 01:45:39;;;;;;;103.32;42.00;;;8.50;99.90;;;;;;5032275;28;20132;-76
2023/02/18 01:48:17;;;;;;;98.35;39.53;;;8.50;99.90;;;;;;5027320;28;20048;-76
2023/02/18 01:50:52;;;;;;;116.15;45.00;;;8.50;99.90;;;;;;5035582;28;20418;-76
2023/02/18 01:53:25;;;;;;;107.57;44.15;;;8.50;99.90;;;;;;5026865;28;20135;-77
2023/02/18 01:55:52;;;;;;;103.43;46.35;;;8.50;99.90;;;;;;5024844;28;20050;-77
2023/02/18 01:58:19;;;;;;;113.32;44.47;;;8.50;99.90;;;;;;5019896;28;20055;-75
2023/02/18 02:00:47;;;;;;;126.05;51.58;;;8.50;99.90;;;;;;5011919;28;20129;-77
2023/02/18 02:03:13;;;;;;;130.85;51.90;;;8.50;99.90;;;;;;5027280;28;20036;-76
2023/02/18 02:05:42;;;;;;;131.23;55.03;;;8.50;99.90;;;;;;5021219;28;20118;-77
2023/02/18 02:08:13;;;;;;;119.05;48.85;;;8.60;99.90;;;;;;5008224;28;20277;-77
2023/02/18 02:10:52;;;;;;;128.43;53.28;;;8.50;99.90;;;;;;5010775;28;20053;-77
2023/02/18 02:13:40;;;;;;;126.25;53.55;;;8.60;99.90;;;;;;5021463;28;20406;-77
2023/02/18 02:16:16;;;;;;;131.55;56.33;;;8.60;99.90;;;;;;5031264;28;21715;-77
2023/02/18 02:19:00;;;;;;;133.43;54.25;;;8.60;99.90;;;;;;5036905;28;20132;-77
2023/02/18 02:21:48;;;;;;;151.43;60.83;;;8.60;99.90;;;;;;5031021;28;20094;-78
2023/02/18 02:24:21;;;;;;;151.70;60.92;;;8.70;99.90;;;;;;5017882;28;20106;-76
2023/02/18 02:27:15;;;;;;;171.30;64.18;;;8.70;99.90;;;;;;5021274;28;20049;-75
2023/02/18 02:29:57;;;;;;;170.95;66.65;;;8.70;99.90;;;;;;5029033;28;20083;-77
2023/02/18 02:32:30;;;;;;;181.20;70.03;;;8.70;99.90;;;;;;5020703;28;20453;-76
2023/02/18 02:34:59;;;;;;;185.88;70.97;;;8.70;99.90;;;;;;5022779;28;20051;-77
2023/02/18 02:37:35;;;;;;;167.20;60.92;;;8.70;99.90;;;;;;5021753;28;20398;-76
2023/02/18 02:40:31;;;;;;;174.20;64.57;;;8.70;99.90;;;;;;5016713;28;20049;-77
2023/02/18 02:43:24;;;;;;;162.13;61.22;;;8.70;99.90;;;;;;5026289;28;20040;-77
2023/02/18 02:45:58;;;;;;;179.50;64.57;;;8.70;99.90;;;;;;5019215;28;20041;-76
2023/02/18 02:48:33;;;;;;;166.07;59.80;;;8.80;99.90;;;;;;5017425;28;20132;-76
2023/02/18 02:51:09;;;;;;;172.98;62.33;;;8.80;99.90;;;;;;5017726;28;20057;-76
2023/02/18 02:53:39;;;;;;;180.38;65.70;;;8.80;99.90;;;;;;5018433;28;20337;-77
2023/02/18 02:56:21;;;;;;;165.40;58.40;;;8.80;99.90;;;;;;5017816;28;20459;-77
2023/02/18 02:59:01;;;;;;;189.88;65.57;;;8.80;99.90;;;;;;5035792;28;20413;-77
2023/02/18 03:01:59;;;;;;;197.68;63.63;;;8.80;99.90;;;;;;5015618;28;20075;-77
2023/02/18 03:04:37;;;;;;;195.57;60.38;;;8.80;99.90;;;;;;5020441;28;20342;-77
2023/02/18 03:07:30;;;;;;;175.70;52.90;;;8.90;99.90;;;;;;5011008;28;20052;-76
2023/02/18 03:10:23;;;;;;;190.70;57.22;;;8.80;99.90;;;;;;5010903;28;20045;-76
2023/02/18 03:13:14;;;;;;;135.25;46.05;;;8.80;99.90;;;;;;5024601;28;20044;-76
2023/02/18 03:15:47;;;;;;;182.77;53.60;;;8.80;99.90;;;;;;5019704;28;20128;-76
2023/02/18 03:18:35;;;;;;;150.07;46.80;;;8.90;99.90;;;;;;5016096;28;20037;-76
2023/02/18 03:21:41;;;;;;;180.02;49.28;;;8.80;99.90;;;;;;5018085;28;20087;-76
2023/02/18 03:24:50;;;;;;;154.60;49.35;;;8.90;99.90;;;;;;5006017;28;20637;-79
2023/02/18 03:27:23;;;;;;;154.88;48.10;;;8.90;99.90;;;;;;4948743;28;20070;-78
2023/02/18 03:29:56;;;;;;;171.93;51.53;;;8.90;99.90;;;;;;4956503;28;20089;-78
2023/02/18 03:32:26;;;;;;;178.57;53.17;;;9.00;99.90;;;;;;4988802;28;20041;-79
2023/02/18 03:34:58;;;;;;;186.85;55.47;;;8.90;99.90;;;;;;5000975;28;20132;-77
2023/02/18 03:37:26;;;;;;;154.93;44.42;;;9.00;99.90;;;;;;5017969;28;20123;-78
2023/02/18 03:39:58;;;;;;;196.15;54.95;;;9.00;99.90;;;;;;5035346;28;20215;-77
2023/02/18 03:42:27;;;;;;;188.48;52.70;;;9.00;99.90;;;;;;5028798;28;20253;-78
2023/02/18 03:44:54;;;;;;;172.90;51.13;;;9.00;99.90;;;;;;5028402;28;20790;-78
2023/02/18 03:47:23;;;;;;;154.95;50.38;;;9.00;99.90;;;;;;5015982;28;20521;-79
2023/02/18 03:49:50;;;;;;;164.77;50.67;;;9.00;99.90;;;;;;5014260;28;20051;-78
2023/02/18 03:52:17;;;;;;;157.15;48.35;;;9.00;99.90;;;;;;5014849;28;20498;-77
2023/02/18 03:54:44;;;;;;;169.65;50.10;;;9.00;99.90;;;;;;5021436;28;20127;-77
2023/02/18 03:57:10;;;;;;;183.35;54.72;;;9.00;99.90;;;;;;5019184;28;20261;-79
2023/02/18 03:59:37;;;;;;;169.98;50.40;;;9.00;99.90;;;;;;5009425;28;20391;-77
2023/02/18 04:02:03;;;;;;;194.90;52.90;;;9.00;99.90;;;;;;5018605;28;20666;-79
2023/02/18 04:04:30;;;;;;;166.05;53.38;;;9.10;99.90;;;;;;5007503;28;20037;-78
2023/02/18 04:06:57;;;;;;;162.00;48.08;;;9.10;99.90;;;;;;5013721;28;20417;-78
2023/02/18 04:09:24;;;;;;;167.32;49.80;;;9.00;99.90;;;;;;5032408;28;20060;-77
2023/02/18 04:11:51;;;;;;;171.68;52.00;;;9.00;99.90;;;;;;5026836;28;20497;-78
2023/02/18 04:14:17;;;;;;;139.10;43.72;;;9.10;99.90;;;;;;5016909;28;20045;-78
2023/02/18 04:16:44;;;;;;;142.82;46.05;;;9.00;99.90;;;;;;5020948;28;20537;-79
2023/02/18 04:19:11;;;;;;;146.93;46.95;;;9.00;99.90;;;;;;5027363;28;20131;-79
2023/02/18 04:21:38;;;;;;;140.15;47.88;;;9.00;99.90;;;;;;5040268;28;20044;-77
2023/02/18 04:24:05;;;;;;;125.80;42.95;;;9.00;99.90;;;;;;5006609;28;20045;-78
2023/02/18 04:26:31;;;;;;;130.15;36.78;;;9.00;99.90;;;;;;5005851;28;20052;-77
2023/02/18 04:28:58;;;;;;;114.85;39.65;;;9.10;99.90;;;;;;5032592;28;20546;-79
2023/02/18 04:31:25;;;;;;;115.65;39.97;;;9.00;99.90;;;;;;5033442;28;20052;-78
2023/02/18 04:33:51;;;;;;;114.82;38.90;;;9.00;99.90;;;;;;5036983;28;20072;-76
2023/02/18 04:36:18;;;;;;;123.63;41.17;;;9.00;99.90;;;;;;5028379;28;20045;-78
2023/02/18 04:38:45;;;;;;;117.47;40.65;;;9.10;99.90;;;;;;5029537;28;20048;-78
2023/02/18 04:41:12;;;;;;;106.13;35.83;;;9.10;99.90;;;;;;5034344;28;20510;-76
2023/02/18 04:43:38;;;;;;;83.35;30.52;;;9.10;99.90;;;;;;5038349;28;20044;-79
2023/02/18 04:46:05;;;;;;;104.03;37.05;;;9.10;99.90;;;;;;5013689;28;20190;-78
2023/02/18 04:48:33;;;;;;;95.07;35.88;;;9.10;99.90;;;;;;5038442;28;20044;-78
2023/02/18 04:51:01;;;;;;;93.97;33.28;;;9.10;99.90;;;;;;5018391;28;20098;-77
2023/02/18 04:53:28;;;;;;;108.65;41.22;;;9.10;99.90;;;;;;5022549;28;20074;-78
2023/02/18 04:55:54;;;;;;;93.78;34.15;;;9.10;99.90;;;;;;5039426;28;20440;-78
2023/02/18 04:58:21;;;;;;;91.68;34.75;;;9.10;99.90;;;;;;5027046;28;20045;-77
2023/02/18 05:00:48;;;;;;;90.93;34.72;;;9.10;99.90;;;;;;5046197;28;20048;-79
2023/02/18 05:03:15;;;;;;;84.95;32.47;;;9.10;99.90;;;;;;5046781;28;20131;-78
2023/02/18 05:05:41;;;;;;;85.60;33.33;;;9.10;99.90;;;;;;5032924;28;20266;-78
2023/02/18 05:08:08;;;;;;;69.93;28.80;;;9.10;99.90;;;;;;5035663;28;20080;-77
2023/02/18 05:10:36;;;;;;;63.28;25.98;;;9.10;99.90;;;;;;5038811;28;20098;-77
2023/02/18 05:13:03;;;;;;;72.28;29.00;;;9.20;99.90;;;;;;5030804;28;20041;-78
2023/02/18 05:15:30;;;;;;;55.22;25.70;;;9.20;99.90;;;;;;5032497;28;20137;-77
2023/02/18 05:17:56;;;;;;;49.10;20.13;;;9.20;99.90;;;;;;5027139;28;20397;-76
2023/02/18 05:20:23;;;;;;;50.53;22.23;;;9.20;99.90;;;;;;5022177;28;20040;-77
2023/02/18 05:22:50;;;;;;;55.53;21.38;;;9.20;99.90;;;;;;5038848;28;20143;-78
2023/02/18 05:25:16;;;;;;;45.60;18.92;;;9.20;99.90;;;;;;5000204;28;20044;-76
2023/02/18 05:27:43;;;;;;;42.83;18.73;;;9.30;99.90;;;;;;5060506;28;20048;-80
2023/02/18 05:30:10;;;;;;;45.42;19.77;;;9.30;99.90;;;;;;5025326;28;20339;-79
2023/02/18 05:32:37;;;;;;;41.08;19.02;;;9.30;99.90;;;;;;5028003;28;20052;-79
2023/02/18 05:35:04;;;;;;;44.00;20.52;;;9.30;99.90;;;;;;5015964;28;20301;-79
2023/02/18 05:37:31;;;;;;;41.72;18.65;;;9.30;99.90;;;;;;5019877;28;20114;-78
2023/02/18 05:39:57;;;;;;;37.80;16.95;;;9.30;99.90;;;;;;5018424;28;20051;-79
2023/02/18 05:42:24;;;;;;;40.28;16.63;;;9.30;99.90;;;;;;5021198;28;20099;-77
2023/02/18 05:44:51;;;;;;;38.67;17.13;;;9.30;99.90;;;;;;5029515;28;20639;-79
2023/02/18 05:47:17;;;;;;;36.53;18.95;;;9.30;99.90;;;;;;5032903;28;20029;-77
2023/02/18 05:49:44;;;;;;;33.83;15.82;;;9.40;99.90;;;;;;5024706;28;20699;-79
2023/02/18 05:52:11;;;;;;;36.78;16.20;;;9.30;99.90;;;;;;5041496;28;20119;-80
2023/02/18 05:54:38;;;;;;;27.38;12.90;;;9.30;99.90;;;;;;5049977;28;20056;-78
2023/02/18 05:57:05;;;;;;;32.90;14.63;;;9.30;99.90;;;;;;5034976;28;20040;-77
2023/02/18 05:59:32;;;;;;;30.50;14.45;;;9.30;99.90;;;;;;5038672;28;20136;-78
2023/02/18 06:01:59;;;;;;;31.50;14.95;;;9.30;99.90;;;;;;5045307;28;20033;-77
2023/02/18 06:04:26;;;;;;;31.92;15.05;;;9.30;99.90;;;;;;5013613;28;20079;-77
2023/02/18 06:06:53;;;;;;;31.15;12.88;;;9.30;99.90;;;;;;5027673;28;20037;-77
2023/02/18 06:09:20;;;;;;;31.70;14.52;;;9.30;99.90;;;;;;5018743;28;20517;-78
2023/02/18 06:11:47;;;;;;;30.45;13.75;;;9.30;99.90;;;;;;5033306;28;20152;-79
2023/02/18 06:14:14;;;;;;;30.13;13.35;;;9.30;99.90;;;;;;5031364;28;20682;-78
2023/02/18 06:16:41;;;;;;;28.70;13.00;;;9.30;99.90;;;;;;5024893;28;20045;-77
2023/02/18 06:19:07;;;;;;;25.73;11.15;;;9.30;99.90;;;;;;5012588;28;20036;-77
2023/02/18 06:21:34;;;;;;;25.67;11.50;;;9.30;99.90;;;;;;5019688;28;20057;-77
2023/02/18 06:24:01;;;;;;;24.60;11.90;;;9.30;99.90;;;;;;5030809;28;20105;-76
2023/02/18 06:26:28;;;;;;;24.92;11.85;;;9.30;99.90;;;;;;5022675;28;20123;-76
2023/02/18 06:28:54;;;;;;;26.27;11.57;;;9.30;99.90;;;;;;5020826;28;20666;-77
2023/02/18 06:31:21;;;;;;;27.67;13.52;;;9.30;99.90;;;;;;5013315;28;20444;-77
2023/02/18 06:33:48;;;;;;;23.27;11.75;;;9.30;99.90;;;;;;5016307;28;20452;-78
2023/02/18 06:36:15;;;;;;;30.23;14.50;;;9.30;99.90;;;;;;5020337;28;20675;-78
2023/02/18 06:38:43;;;;;;;26.02;11.85;;;9.30;99.90;;;;;;5027816;28;20110;-77
2023/02/18 06:41:11;;;;;;;25.38;10.93;;;9.30;99.90;;;;;;5036482;28;20052;-77
2023/02/18 06:43:38;;;;;;;24.15;10.85;;;9.30;99.90;;;;;;5029884;28;20460;-78
2023/02/18 06:46:05;;;;;;;24.58;10.23;;;9.30;99.90;;;;;;5019598;28;20045;-78
2023/02/18 06:48:32;;;;;;;25.00;10.63;;;9.30;99.90;;;;;;5010038;28;20033;-78
2023/02/18 06:50:59;;;;;;;21.15;10.43;;;9.20;99.90;;;;;;5016827;28;20128;-78
2023/02/18 06:53:26;;;;;;;24.52;10.50;;;9.20;99.90;;;;;;5019341;28;20125;-77
2023/02/18 06:55:52;;;;;;;20.45;10.02;;;9.20;99.90;;;;;;5014175;28;20093;-77
2023/02/18 06:58:19;;;;;;;18.55;7.90;;;9.20;99.90;;;;;;5008279;28;20041;-78
2023/02/18 07:00:46;;;;;;;22.73;10.27;;;9.20;99.90;;;;;;5027056;28;20551;-76
2023/02/18 07:03:13;;;;;;;17.33;7.63;;;9.20;99.90;;;;;;5016195;28;20044;-78
2023/02/18 07:05:41;;;;;;;16.48;8.30;;;9.20;99.90;;;;;;5020520;28;20048;-77
2023/02/18 07:08:08;;;;;;;14.00;7.50;;;9.20;99.90;;;;;;5018722;28;20063;-77
2023/02/18 07:10:35;;;;;;;15.75;7.45;;;9.20;99.90;;;;;;5049523;28;20053;-79
2023/02/18 07:13:02;;;;;;;15.52;6.63;;;9.20;99.90;;;;;;5027213;28;20299;-76
2023/02/18 07:15:29;;;;;;;8.73;5.32;;;9.20;99.90;;;;;;5021139;28;20071;-77
2023/02/18 07:17:55;;;;;;;7.70;4.47;;;9.20;99.90;;;;;;5012488;28;20534;-79
2023/02/18 07:20:23;;;;;;;8.48;4.63;;;9.30;99.90;;;;;;5023298;28;20308;-77
2023/02/18 07:22:50;;;;;;;6.32;4.45;;;9.20;99.90;;;;;;5031945;28;20052;-78
2023/02/18 07:25:17;;;;;;;7.75;4.97;;;9.30;99.90;;;;;;5013177;28;20029;-79
2023/02/18 07:27:43;;;;;;;7.93;4.03;;;9.20;99.90;;;;;;5011660;28;20055;-78
2023/02/18 07:30:10;;;;;;;5.18;3.90;;;9.30;99.90;;;;;;5028666;28;20199;-78
2023/02/18 07:32:37;;;;;;;7.55;4.88;;;9.30;99.90;;;;;;5027802;28;20482;-78
2023/02/18 07:35:05;;;;;;;5.03;3.72;;;9.20;99.90;;;;;;5024381;28;20049;-78
2023/02/18 07:37:32;;;;;;;5.70;3.75;;;9.30;99.90;;;;;;5028317;28;20037;-78
2023/02/18 07:39:58;;;;;;;5.43;3.70;;;9.30;99.90;;;;;;5047434;28;20045;-78
2023/02/18 07:42:25;;;;;;;5.07;3.22;;;9.20;99.90;;;;;;5020314;28;20140;-78
2023/02/18 07:44:52;;;;;;;6.35;3.40;;;9.20;99.90;;;;;;5036291;28;20048;-78
2023/02/18 07:47:19;;;;;;;3.85;3.30;;;9.20;99.90;;;;;;5043522;28;20032;-77
2023/02/18 07:49:46;;;;;;;6.55;3.95;;;9.20;99.90;;;;;;5032516;28;20040;-78
2023/02/18 07:52:14;;;;;;;5.15;3.83;;;9.20;99.90;;;;;;5027683;28;20049;-78
2023/02/18 07:54:41;;;;;;;4.20;3.15;;;9.20;99.90;;;;;;5028759;28;20044;-78
2023/02/18 07:57:08;;;;;;;4.80;3.13;;;9.20;99.90;;;;;;5011102;28;20109;-76
2023/02/18 07:59:35;;;;;;;6.47;4.30;;;9.20;99.90;;;;;;5051944;28;20048;-78
2023/02/18 08:02:02;;;;;;;7.35;4.72;;;9.20;99.90;;;;;;5031865;28;20036;-78
2023/02/18 08:04:29;;;;;;;6.32;3.85;;;9.30;99.90;;;;;;5013712;28;20040;-79
2023/02/18 08:06:56;;;;;;;6.22;4.07;;;9.20;99.90;;;;;;5031302;28;20098;-78
2023/02/18 08:09:22;;;;;;;7.22;4.03;;;9.20;99.90;;;;;;5029740;28;20040;-80
2023/02/18 08:11:49;;;;;;;5.82;3.50;;;9.20;99.90;;;;;;5040698;28;20045;-79
2023/02/18 08:14:16;;;;;;;6.90;4.38;;;9.20;99.90;;;;;;5012209;28;20140;-78
2023/02/18 08:16:42;;;;;;;4.80;4.05;;;9.20;99.90;;;;;;5031148;28;20693;-77
2023/02/18 08:19:09;;;;;;;9.80;6.05;;;9.20;99.90;;;;;;5029219;28;20036;-77
2023/02/18 08:21:36;;;;;;;6.40;5.03;;;9.20;99.90;;;;;;5020081;28;20068;-78
2023/02/18 08:24:03;;;;;;;7.05;4.80;;;9.20;99.90;;;;;;5035357;28;20498;-78
2023/02/18 08:26:29;;;;;;;7.13;4.95;;;9.20;99.90;;;;;;5016204;28;20055;-79
2023/02/18 08:28:56;;;;;;;6.25;5.47;;;9.20;99.90;;;;;;5050835;28;20491;-78
2023/02/18 08:31:26;;;;;;;5.60;4.45;;;9.20;99.90;;;;;;5044015;28;20485;-78
2023/02/18 08:33:55;;;;;;;7.10;5.07;;;9.20;99.90;;;;;;5034106;28;20498;-77
2023/02/18 08:36:22;;;;;;;7.50;6.70;;;9.20;99.90;;;;;;5025406;28;20298;-79
2023/02/18 08:38:49;;;;;;;9.30;7.53;;;9.20;99.90;;;;;;5048655;28;20037;-78
2023/02/18 08:41:17;;;;;;;8.32;6.85;;;9.20;99.90;;;;;;5024783;28;20105;-79
2023/02/18 08:43:45;;;;;;;8.70;6.85;;;9.20;99.90;;;;;;5038039;28;20056;-78
2023/02/18 08:46:13;;;;;;;5.95;5.20;;;9.20;99.90;;;;;;5027411;28;20079;-77
2023/02/18 08:48:58;;;;;;;5.78;4.75;;;9.20;99.90;;;;;;5031406;28;20097;-77
2023/02/18 08:51:25;;;;;;;8.50;5.72;;;9.20;99.90;;;;;;5033885;28;20044;-78
2023/02/18 08:53:52;;;;;;;8.25;6.65;;;9.20;99.90;;;;;;5038938;28;20077;-77
2023/02/18 08:56:18;;;;;;;5.88;4.97;;;9.20;99.90;;;;;;5020772;28;20049;-79
2023/02/18 08:58:45;;;;;;;7.15;5.85;;;9.20;99.90;;;;;;5037421;28;20420;-78
2023/02/18 09:01:12;;;;;;;6.60;5.13;;;9.20;99.90;;;;;;5029746;28;20136;-78
2023/02/18 09:03:40;;;;;;;9.98;7.05;;;9.20;99.90;;;;;;5013877;28;20044;-78
2023/02/18 09:06:07;;;;;;;8.05;6.07;;;9.20;99.90;;;;;;5036563;28;20044;-78
2023/02/18 09:08:33;;;;;;;5.05;4.55;;;9.20;99.90;;;;;;5018863;28;20041;-78
2023/02/18 09:11:03;;;;;;;9.00;6.65;;;9.10;99.90;;;;;;5024421;28;20541;-78
2023/02/18 09:13:31;;;;;;;6.50;5.40;;;9.10;99.90;;;;;;5041541;28;20259;-77
2023/02/18 09:16:04;;;;;;;9.27;6.10;;;9.10;99.90;;;;;;5021213;28;20061;-77
2023/02/18 09:18:31;;;;;;;9.52;6.55;;;9.00;99.90;;;;;;5023211;28;20041;-78
2023/02/18 09:20:59;;;;;;;8.88;6.72;;;9.00;99.90;;;;;;5045373;28;20041;-77
2023/02/18 09:23:27;;;;;;;11.60;7.65;;;9.00;99.90;;;;;;5042898;28;20098;-77
2023/02/18 09:25:55;;;;;;;12.40;8.63;;;9.00;99.90;;;;;;5049779;28;20269;-78
2023/02/18 09:28:22;;;;;;;12.57;7.93;;;9.00;99.90;;;;;;5023008;28;20051;-78
2023/02/18 09:30:49;;;;;;;10.98;7.40;;;9.00;99.90;;;;;;5052473;28;20479;-78
2023/02/18 09:33:16;;;;;;;10.57;7.82;;;9.00;99.90;;;;;;5046250;28;20041;-78
2023/02/18 09:35:45;;;;;;;10.63;7.05;;;8.90;99.90;;;;;;5004774;28;20517;-78
2023/02/18 09:38:15;;;;;;;11.68;6.78;;;8.90;99.90;;;;;;5027663;28;20059;-77
2023/02/18 09:40:49;;;;;;;7.90;6.10;;;8.90;99.90;;;;;;5025059;28;20048;-77
2023/02/18 09:43:42;;;;;;;12.05;6.65;;;8.90;99.90;;;;;;5023920;28;20059;-78
2023/02/18 09:46:22;;;;;;;10.30;7.38;;;9.00;99.90;;;;;;5030429;28;20103;-77
2023/02/18 09:48:50;;;;;;;10.07;7.28;;;9.00;99.90;;;;;;5027730;28;20071;-77
2023/02/18 09:51:18;;;;;;;10.63;7.18;;;8.90;99.90;;;;;;5013779;28;20043;-78
2023/02/18 09:53:46;;;;;;;10.52;7.53;;;8.90;99.90;;;;;;5044273;28;20128;-78
2023/02/18 09:56:34;;;;;;;11.68;6.22;;;8.90;99.90;;;;;;5025042;28;20372;-78
2023/02/18 09:59:04;;;;;;;9.38;5.90;;;8.90;99.90;;;;;;5001920;28;20049;-79
2023/02/18 10:01:37;;;;;;;9.35;4.53;;;8.90;99.90;;;;;;5021861;28;20056;-79
2023/02/18 10:04:17;;;;;;;6.38;4.82;;;8.90;99.90;;;;;;5007486;28;20065;-78
2023/02/18 10:06:46;;;;;;;6.05;4.07;;;8.90;99.90;;;;;;5028783;28;20125;-78
2023/02/18 10:09:24;;;;;;;5.20;3.83;;;8.90;99.90;;;;;;5029074;28;20044;-78
2023/02/18 10:11:56;;;;;;;7.38;4.72;;;9.00;99.90;;;;;;5030486;28;20045;-77
2023/02/18 10:14:25;;;;;;;8.77;3.70;;;9.00;99.90;;;;;;5025520;28;20059;-78
2023/02/18 10:16:52;;;;;;;7.53;4.85;;;9.00;99.90;;;;;;5032169;28;20131;-78
2023/02/18 10:19:36;;;;;;;5.20;2.75;;;9.00;99.90;;;;;;5025492;28;20806;-79
2023/02/18 10:22:05;;;;;;;5.05;2.95;;;8.90;99.90;;;;;;5028915;28;20475;-77
2023/02/18 10:24:36;;;;;;;4.95;3.47;;;8.90;99.90;;;;;;5024399;28;20040;-76
2023/02/18 10:27:06;;;;;;;5.97;3.72;;;8.90;99.90;;;;;;5033512;28;20041;-77
2023/02/18 10:29:34;;;;;;;5.28;3.25;;;8.90;99.90;;;;;;5032137;28;20395;-79
2023/02/18 10:32:15;;;;;;;4.47;2.95;;;8.90;99.90;;;;;;5031182;28;20083;-77
2023/02/18 10:34:49;;;;;;;5.00;3.20;;;8.90;99.90;;;;;;5027601;28;20053;-78
2023/02/18 10:38:02;;;;;;;6.03;4.07;;;8.80;99.90;;;;;;5024936;28;20049;-77
2023/02/18 10:41:14;;;;;;;9.82;5.18;;;8.80;99.90;;;;;;4947339;28;20298;-78
2023/02/18 10:43:57;;;;;;;9.27;5.30;;;8.70;99.90;;;;;;5055852;28;20047;-78
2023/02/18 10:47:01;;;;;;;10.55;5.80;;;8.60;99.90;;;;;;5019048;28;20041;-79
2023/02/18 10:50:01;;;;;;;11.13;5.53;;;8.60;99.90;;;;;;5022570;28;20136;-78
2023/02/18 10:52:41;;;;;;;10.70;5.78;;;8.60;99.90;;;;;;5021376;28;20041;-79
2023/02/18 10:55:11;;;;;;;11.13;5.55;;;8.50;99.90;;;;;;5036112;28;20270;-77
2023/02/18 10:57:52;;;;;;;12.00;6.72;;;8.50;99.90;;;;;;5028603;28;20056;-78
2023/02/18 11:00:27;;;;;;;15.77;8.20;;;8.50;99.90;;;;;;5023823;28;20492;-77
2023/02/18 11:03:15;;;;;;;12.10;6.93;;;8.50;99.90;;;;;;5026760;28;20184;-78
2023/02/18 11:05:44;;;;;;;16.00;6.75;;;8.50;99.90;;;;;;5024336;28;20056;-77
2023/02/18 11:08:18;;;;;;;11.57;7.15;;;8.50;99.90;;;;;;5025397;28;20058;-77
2023/02/18 11:10:47;;;;;;;12.48;7.10;;;8.50;99.90;;;;;;5036850;28;20326;-78
2023/02/18 11:13:17;;;;;;;14.85;7.22;;;8.50;99.90;;;;;;5019133;28;20345;-77
2023/02/18 11:15:56;;;;;;;12.05;7.25;;;8.40;99.90;;;;;;5019814;28;20123;-79
2023/02/18 11:18:24;;;;;;;13.77;6.68;;;8.50;99.90;;;;;;5030226;28;20123;-77
2023/02/18 11:21:00;;;;;;;17.20;7.30;;;8.40;99.90;;;;;;5032088;28;20052;-79
2023/02/18 11:23:27;;;;;;;18.55;8.52;;;8.30;99.90;;;;;;5019421;28;20057;-78
2023/02/18 11:26:05;;;;;;;16.27;8.85;;;8.30;99.90;;;;;;5028869;28;20422;-77
2023/02/18 11:28:57;;;;;;;17.15;7.95;;;8.30;99.90;;;;;;5022145;28;20090;-77
2023/02/18 11:31:28;;;;;;;18.88;8.45;;;8.20;99.90;;;;;;5025496;28;20044;-78
2023/02/18 11:33:59;;;;;;;17.52;9.65;;;8.20;99.90;;;;;;5032972;28;20044;-78
2023/02/18 11:36:31;;;;;;;17.38;10.23;;;8.20;99.90;;;;;;5012434;28;20102;-77
2023/02/18 11:39:06;;;;;;;18.67;10.38;;;8.20;99.90;;;;;;5011037;28;20049;-77
2023/02/18 11:41:57;;;;;;;15.98;8.30;;;8.20;99.90;;;;;;5026209;28;20067;-78
2023/02/18 11:44:32;;;;;;;14.80;7.45;;;8.20;99.90;;;;;;5024797;28;20093;-78
2023/02/18 11:47:13;;;;;;;20.83;12.63;;;8.10;99.90;;;;;;5025652;28;20037;-78
2023/02/18 11:50:00;;;;;;;22.20;11.50;;;8.20;99.90;;;;;;5020526;28;21405;-77
2023/02/18 11:52:38;;;;;;;18.35;10.27;;;8.20;99.90;;;;;;5027628;28;20098;-78
2023/02/18 11:55:13;;;;;;;21.63;10.15;;;8.20;99.90;;;;;;5022607;28;20048;-77
2023/02/18 11:57:58;;;;;;;20.95;10.25;;;8.30;99.90;;;;;;5025544;28;20052;-78
2023/02/18 12:00:44;;;;;;;25.05;11.32;;;8.20;99.90;;;;;;5022182;28;20037;-78
2023/02/18 12:03:34;;;;;;;19.42;8.93;;;8.20;99.90;;;;;;5017146;28;20045;-78
2023/02/18 12:06:10;;;;;;;17.10;9.27;;;8.10;99.90;;;;;;5021860;28;20116;-78
2023/02/18 12:08:51;;;;;;;13.75;8.85;;;8.20;99.90;;;;;;5029893;28;20116;-79
2023/02/18 12:11:33;;;;;;;18.85;9.13;;;8.20;99.90;;;;;;5017639;28;20060;-77
2023/02/18 12:14:00;;;;;;;15.18;9.07;;;8.20;99.90;;;;;;5029002;28;20079;-77
2023/02/18 12:16:49;;;;;;;15.30;9.10;;;8.20;99.90;;;;;;5022861;28;20148;-78
2023/02/18 12:19:59;;;;;;;19.92;10.90;;;8.20;99.90;;;;;;5024619;28;20041;-78
2023/02/18 12:22:31;;;;;;;18.02;10.10;;;8.20;99.90;;;;;;5021871;28;20064;-78
2023/02/18 12:25:26;;;;;;;18.45;9.73;;;8.20;99.90;;;;;;5048780;28;20047;-77
2023/02/18 12:28:11;;;;;;;16.08;8.95;;;8.20;99.90;;;;;;5025630;28;20045;-78
2023/02/18 12:31:03;;;;;;;17.63;10.35;;;8.20;99.90;;;;;;5024920;28;20102;-77
2023/02/18 12:33:58;;;;;;;22.15;10.20;;;8.20;99.90;;;;;;5017575;28;20037;-77
2023/02/18 12:36:43;;;;;;;22.33;10.40;;;8.20;99.90;;;;;;5023381;28;20045;-77
2023/02/18 12:39:42;;;;;;;14.57;9.05;;;8.20;99.90;;;;;;5020516;28;21095;-78
2023/02/18 12:42:34;;;;;;;16.45;9.75;;;8.20;99.90;;;;;;5025756;28;20045;-78
2023/02/18 12:45:04;;;;;;;18.33;8.93;;;8.20;99.90;;;;;;5022921;28;20733;-78
2023/02/18 12:47:36;;;;;;;16.98;11.48;;;8.20;99.90;;;;;;5025599;28;20511;-78
2023/02/18 12:50:24;;;;;;;15.88;9.30;;;8.20;99.90;;;;;;5021176;28;20322;-78
2023/02/18 12:53:16;;;;;;;16.70;10.63;;;8.20;99.90;;;;;;5031778;28;20127;-78
2023/02/18 12:56:09;;;;;;;14.50;8.88;;;8.30;99.90;;;;;;5016524;28;20064;-79
2023/02/18 12:59:07;;;;;;;18.70;10.15;;;8.20;99.90;;;;;;5029838;28;20207;-78
2023/02/18 13:01:44;;;;;;;15.50;9.52;;;8.20;99.90;;;;;;5020648;28;20135;-79
2023/02/18 13:04:16;;;;;;;15.45;8.77;;;8.20;99.90;;;;;;5030681;28;20131;-78
2023/02/18 13:06:59;;;;;;;17.27;10.75;;;8.20;99.90;;;;;;5032090;28;20681;-77